Time;durP1;ratioP1;P1;durP2;ratioP2;P2;SDS_P1;SDS_P2;PMS_P1;PMS_P2;Temp;Humidity;BMP_temperature;BMP_pressure;BME280_temperature;BME280_humidity;BME280_pressure;Samples;Min_cycle;Max_cycle;Signal;HPM_P1;HPM_P2
2023/07/27 00:04:29;;;;;;;9.13;6.97;;;;;;;-144.32;100.00;68061.97;10300304;28;20049;-77
2023/07/27 00:09:30;;;;;;;7.53;6.38;;;;;;;-144.32;100.00;68061.97;10302778;28;20043;-75
2023/07/27 00:14:30;;;;;;;9.77;7.07;;;;;;;-144.32;100.00;68061.97;10301526;28;20074;-77
2023/07/27 00:19:31;;;;;;;7.68;6.32;;;;;;;-144.32;100.00;68061.97;10301875;28;20124;-76
2023/07/27 00:24:31;;;;;;;9.82;6.90;;;;;;;-144.32;100.00;68061.97;10299585;28;20058;-76
2023/07/27 00:29:33;;;;;;;7.78;6.53;;;;;;;-144.32;100.00;68061.97;10299513;28;20157;-80
2023/07/27 00:34:33;;;;;;;8.00;6.60;;;;;;;-144.32;100.00;68061.97;10276165;28;20077;-76
2023/07/27 00:39:35;;;;;;;8.65;6.32;;;;;;;-144.32;100.00;68061.97;10296638;28;20074;-76
2023/07/27 00:44:35;;;;;;;8.73;6.63;;;;;;;-144.32;100.00;68061.97;10296820;28;20043;-78
2023/07/27 00:49:36;;;;;;;7.03;6.32;;;;;;;-144.32;100.00;68061.97;10273116;28;20046;-78
2023/07/27 00:54:38;;;;;;;8.82;6.57;;;;;;;-144.32;100.00;68061.97;10304939;28;20050;-77
2023/07/27 00:59:40;;;;;;;8.07;7.18;;;;;;;-144.32;100.00;68061.97;10307422;28;20402;-78
2023/07/27 01:04:40;;;;;;;8.20;6.38;;;;;;;-144.32;100.00;68061.97;11584685;23;20046;-78
2023/07/27 01:09:41;;;;;;;8.30;6.78;;;;;;;-144.32;100.00;68061.97;10307636;28;20050;-79
2023/07/27 01:15:02;;;;;;;8.73;6.53;;;;;;;-144.32;100.00;68061.97;10292136;28;20052;-78
2023/07/27 01:20:32;;;;;;;8.68;6.38;;;;;;;-144.32;100.00;68061.97;10286298;28;20073;-79
2023/07/27 01:25:50;;;;;;;8.77;6.57;;;;;;;-144.32;100.00;68061.97;10289622;28;20132;-80
2023/07/27 01:31:08;;;;;;;9.65;6.97;;;;;;;-144.32;100.00;68061.97;10304964;28;20043;-80
2023/07/27 01:36:13;;;;;;;8.10;6.50;;;;;;;-144.32;100.00;68061.97;10307373;28;20050;-81
2023/07/27 01:41:18;;;;;;;8.25;6.95;;;;;;;-144.32;100.00;68061.97;10287999;28;21329;-81
2023/07/27 01:46:20;;;;;;;8.27;6.38;;;;;;;-144.32;100.00;68061.97;10305604;28;20054;-81
2023/07/27 01:51:23;;;;;;;6.90;6.13;;;;;;;-144.32;100.00;68061.97;10307392;28;20092;-82
2023/07/27 01:56:24;;;;;;;9.65;6.28;;;;;;;-144.32;100.00;68061.97;10305899;28;20046;-79
2023/07/27 02:01:28;;;;;;;8.35;6.82;;;;;;;-144.32;100.00;68061.97;10287007;28;20356;-80
2023/07/27 02:06:29;;;;;;;9.13;6.10;;;;;;;-144.32;100.00;68061.97;10292071;28;20061;-82
2023/07/27 02:11:29;;;;;;;8.10;6.45;;;;;;;-144.32;100.00;68061.97;10280994;28;20066;-80
2023/07/27 02:16:47;;;;;;;7.47;6.53;;;;;;;-144.32;100.00;68061.97;10271582;28;20038;-81
2023/07/27 02:21:48;;;;;;;7.07;6.35;;;;;;;-144.32;100.00;68061.97;10269642;28;20053;-79
2023/07/27 02:27:08;;;;;;;7.00;6.03;;;;;;;-144.32;100.00;68061.97;10265525;28;20385;-76
2023/07/27 02:32:09;;;;;;;7.20;6.38;;;;;;;-144.32;100.00;68061.97;10265718;28;20047;-78
2023/07/27 02:37:09;;;;;;;6.78;6.03;;;;;;;-144.32;100.00;68061.97;10265955;28;20038;-77
2023/07/27 02:42:10;;;;;;;9.27;6.40;;;;;;;-144.32;100.00;68061.97;10249260;28;20117;-77
2023/07/27 02:47:10;;;;;;;9.27;6.45;;;;;;;-144.32;100.00;68061.97;10265764;28;20073;-78
2023/07/27 02:52:11;;;;;;;10.98;6.63;;;;;;;-144.32;100.00;68061.97;10270112;28;20051;-77
2023/07/27 02:57:11;;;;;;;7.45;6.20;;;;;;;-144.32;100.00;68061.97;10252972;28;20043;-78
2023/07/27 03:02:18;;;;;;;9.48;5.97;;;;;;;-144.32;100.00;68061.97;10250276;28;20058;-78
2023/07/27 03:07:19;;;;;;;7.45;6.20;;;;;;;-144.32;100.00;68061.97;10248437;28;20546;-79
2023/07/27 03:12:20;;;;;;;6.60;5.97;;;;;;;-144.32;100.00;68061.97;10253652;28;20042;-80
2023/07/27 03:17:20;;;;;;;8.02;6.45;;;;;;;-144.32;100.00;68061.97;10268520;28;20040;-80
2023/07/27 03:22:21;;;;;;;6.38;5.30;;;;;;;-144.32;100.00;68061.97;10247852;28;20147;-79
2023/07/27 03:27:22;;;;;;;8.65;6.28;;;;;;;-144.32;100.00;68061.97;10270353;28;20406;-79
2023/07/27 03:32:22;;;;;;;7.82;6.13;;;;;;;-144.32;100.00;68061.97;10251431;28;20181;-80
2023/07/27 03:37:22;;;;;;;7.13;6.20;;;;;;;-144.32;100.00;68061.97;10268519;28;20045;-79
2023/07/27 03:42:23;;;;;;;7.80;6.00;;;;;;;-144.32;100.00;68061.97;10270930;28;20070;-80
2023/07/27 03:47:23;;;;;;;9.10;6.05;;;;;;;-144.32;100.00;68061.97;10255050;28;20510;-79
2023/07/27 03:52:24;;;;;;;7.80;7.00;;;;;;;-144.32;100.00;68061.97;10273262;28;20514;-79
2023/07/27 03:57:25;;;;;;;8.68;6.43;;;;;;;-144.32;100.00;68061.97;10247436;28;20574;-78
2023/07/27 04:02:27;;;;;;;9.40;6.72;;;;;;;-144.32;100.00;68061.97;10271993;28;20042;-77
2023/07/27 04:07:28;;;;;;;7.28;5.80;;;;;;;-144.32;100.00;68061.97;10266180;28;20124;-76
2023/07/27 04:12:28;;;;;;;7.32;5.68;;;;;;;-144.32;100.00;68061.97;10269248;28;20039;-77
2023/07/27 04:17:29;;;;;;;10.20;6.35;;;;;;;-144.32;100.00;68061.97;10268292;28;20053;-77
2023/07/27 04:22:30;;;;;;;10.13;7.00;;;;;;;-144.32;100.00;68061.97;10265601;28;20047;-76
2023/07/27 04:27:30;;;;;;;8.07;6.38;;;;;;;-144.32;100.00;68061.97;10273827;28;20068;-76
2023/07/27 04:32:31;;;;;;;8.38;6.38;;;;;;;-144.32;100.00;68061.97;10280492;28;20051;-78
2023/07/27 04:37:31;;;;;;;9.23;7.00;;;;;;;-144.32;100.00;68061.97;10283196;28;20050;-81
2023/07/27 04:42:34;;;;;;;9.77;6.72;;;;;;;-144.32;100.00;68061.97;10264959;28;20481;-79
2023/07/27 04:47:34;;;;;;;8.05;6.65;;;;;;;-144.32;100.00;68061.97;10278616;28;20050;-80
2023/07/27 04:52:35;;;;;;;7.40;6.03;;;;;;;-144.32;100.00;68061.97;10262430;28;20050;-79
2023/07/27 04:57:39;;;;;;;11.73;6.93;;;;;;;-144.32;100.00;68061.97;10277864;28;20043;-79
2023/07/27 05:02:42;;;;;;;9.75;6.38;;;;;;;-144.32;100.00;68061.97;10275891;28;20039;-78
2023/07/27 05:07:43;;;;;;;8.13;6.78;;;;;;;-144.32;100.00;68061.97;10276541;28;20516;-82
2023/07/27 05:12:45;;;;;;;9.23;7.07;;;;;;;-144.32;100.00;68061.97;10277017;28;20051;-80
2023/07/27 05:17:48;;;;;;;7.70;6.65;;;;;;;-144.32;100.00;68061.97;10283369;28;20458;-82
2023/07/27 05:22:51;;;;;;;11.80;6.88;;;;;;;-144.32;100.00;68061.97;10284887;28;20143;-80
2023/07/27 05:27:54;;;;;;;9.45;6.28;;;;;;;-144.32;100.00;68061.97;10296375;28;20050;-83
2023/07/27 05:32:55;;;;;;;11.27;7.28;;;;;;;-144.32;100.00;68061.97;10268497;28;20402;-79
2023/07/27 05:37:58;;;;;;;8.27;6.43;;;;;;;-144.32;100.00;68061.97;10269913;28;20046;-79
2023/07/27 05:43:01;;;;;;;11.97;7.03;;;;;;;-144.32;100.00;68061.97;10271136;28;20241;-75
2023/07/27 05:48:04;;;;;;;7.93;6.63;;;;;;;-144.32;100.00;68061.97;10269277;28;20086;-75
2023/07/27 05:53:06;;;;;;;9.05;6.82;;;;;;;-144.32;100.00;68061.97;10270554;28;20046;-73
2023/07/27 05:58:08;;;;;;;8.80;7.13;;;;;;;-144.32;100.00;68061.97;10274698;28;21182;-75
2023/07/27 06:03:10;;;;;;;8.48;6.53;;;;;;;-144.32;100.00;68061.97;10269205;28;20130;-75
2023/07/27 06:08:12;;;;;;;8.25;6.30;;;;;;;-144.32;100.00;68061.97;10260292;28;20869;-76
2023/07/27 06:13:16;;;;;;;7.47;6.10;;;;;;;-144.32;100.00;68061.97;10271245;28;20498;-76
2023/07/27 06:18:20;;;;;;;8.55;6.57;;;;;;;-144.32;100.00;68061.97;10270565;28;20054;-76
2023/07/27 06:23:23;;;;;;;10.63;6.57;;;;;;;-144.32;100.00;68061.97;10270177;28;20375;-78
2023/07/27 06:28:24;;;;;;;9.43;6.70;;;;;;;-144.32;100.00;68061.97;10269861;28;20053;-78
2023/07/27 06:33:27;;;;;;;10.40;5.95;;;;;;;-144.32;100.00;68061.97;10266914;28;20035;-74
2023/07/27 06:38:32;;;;;;;10.00;6.28;;;;;;;-144.32;100.00;68061.97;10269871;28;20050;-74
2023/07/27 06:43:33;;;;;;;7.00;5.65;;;;;;;-144.32;100.00;68061.97;10273165;28;20054;-74
2023/07/27 06:48:34;;;;;;;7.50;6.00;;;;;;;-144.32;100.00;68061.97;10276563;28;20043;-74
2023/07/27 06:53:40;;;;;;;8.88;6.18;;;;;;;-144.32;100.00;68061.97;10257257;28;20050;-79
2023/07/27 06:58:46;;;;;;;7.20;5.80;;;;;;;-144.32;100.00;68061.97;10299417;28;20042;-78
2023/07/27 07:03:47;;;;;;;7.65;6.00;;;;;;;-144.32;100.00;68061.97;10270476;28;20134;-78
2023/07/27 07:08:53;;;;;;;7.60;4.85;;;;;;;-144.32;100.00;68061.97;10253767;28;20053;-76
2023/07/27 07:13:58;;;;;;;9.18;5.55;;;;;;;-144.32;100.00;68061.97;10272308;28;20082;-78
2023/07/27 07:19:05;;;;;;;6.72;5.00;;;;;;;-144.32;100.00;68061.97;10250103;28;20443;-77
2023/07/27 07:24:09;;;;;;;9.13;5.60;;;;;;;-144.32;100.00;68061.97;10265943;28;20134;-76
2023/07/27 07:29:14;;;;;;;6.90;5.10;;;;;;;-144.32;100.00;68061.97;10269270;28;20038;-77
2023/07/27 07:34:22;;;;;;;7.03;4.82;;;;;;;-144.32;100.00;68061.97;10257759;28;20047;-78
2023/07/27 07:39:30;;;;;;;5.60;4.10;;;;;;;-144.32;100.00;68061.97;10272456;28;20047;-79
2023/07/27 07:44:34;;;;;;;6.80;4.93;;;;;;;-144.32;100.00;68061.97;10271972;28;20047;-79
2023/07/27 07:49:46;;;;;;;7.70;5.30;;;;;;;-144.32;100.00;68061.97;10302079;28;20047;-75
2023/07/27 07:54:53;;;;;;;6.47;4.72;;;;;;;-144.32;100.00;68061.97;10291713;28;20050;-79
2023/07/27 08:00:03;;;;;;;6.13;4.60;;;;;;;-144.32;100.00;68061.97;10272115;28;20042;-78
2023/07/27 08:05:18;;;;;;;8.35;5.10;;;;;;;-144.32;100.00;68061.97;10266799;28;20070;-77
2023/07/27 08:10:25;;;;;;;7.18;4.97;;;;;;;-144.32;100.00;68061.97;10246387;28;20062;-76
2023/07/27 08:15:32;;;;;;;7.30;4.65;;;;;;;-144.32;100.00;68061.97;10265744;28;20133;-76
2023/07/27 08:20:35;;;;;;;7.57;5.25;;;;;;;-144.32;100.00;68061.97;10265207;28;20499;-74
2023/07/27 08:25:40;;;;;;;5.72;4.95;;;;;;;-144.32;100.00;68061.97;10253000;28;20058;-76
2023/07/27 08:30:52;;;;;;;6.55;5.47;;;;;;;-144.32;100.00;68061.97;10269271;28;20066;-75
2023/07/27 08:36:08;;;;;;;7.95;5.25;;;;;;;-144.32;100.00;68061.97;10270789;28;20047;-74
2023/07/27 08:41:34;;;;;;;9.40;5.75;;;;;;;-144.32;100.00;68061.97;10282259;28;20053;-74
2023/07/27 08:46:50;;;;;;;6.95;5.55;;;;;;;-144.32;100.00;68061.97;10269376;28;20047;-75
2023/07/27 08:52:01;;;;;;;6.50;5.45;;;;;;;-144.32;100.00;68061.97;10269579;28;20137;-76
2023/07/27 08:57:11;;;;;;;9.27;5.30;;;;;;;-144.32;100.00;68061.97;10264864;28;20203;-76
2023/07/27 09:02:34;;;;;;;8.10;6.60;;;;;;;-144.32;100.00;68061.97;10264289;28;20105;-75
2023/07/27 09:07:42;;;;;;;8.47;6.73;;;;;;;-144.32;100.00;68061.97;10248685;28;20097;-76
2023/07/27 09:12:48;;;;;;;8.93;6.30;;;;;;;-144.32;100.00;68061.97;10271322;28;20495;-76
2023/07/27 09:18:02;;;;;;;7.35;5.25;;;;;;;-144.32;100.00;68061.97;10272937;28;20139;-74
2023/07/27 09:23:18;;;;;;;9.45;6.43;;;;;;;-144.32;100.00;68061.97;10261912;28;20726;-74
2023/07/27 09:28:35;;;;;;;7.63;6.22;;;;;;;-144.32;100.00;68061.97;10254956;28;20054;-76
2023/07/27 09:33:46;;;;;;;7.72;5.47;;;;;;;-144.32;100.00;68061.97;10274617;28;20042;-77
2023/07/27 09:38:51;;;;;;;7.22;5.00;;;;;;;-144.32;100.00;68061.97;10271686;28;20693;-77
2023/07/27 09:44:03;;;;;;;7.47;5.53;;;;;;;-144.32;100.00;68061.97;10276752;28;20034;-76
2023/07/27 09:49:08;;;;;;;7.07;5.72;;;;;;;-144.32;100.00;68061.97;10273738;28;20161;-76
2023/07/27 09:54:22;;;;;;;7.70;5.65;;;;;;;-144.32;100.00;68061.97;10267955;28;20054;-76
2023/07/27 09:59:47;;;;;;;7.55;6.20;;;;;;;-144.32;100.00;68061.97;10268327;28;20074;-77
2023/07/27 10:05:17;;;;;;;6.38;5.57;;;;;;;-144.32;100.00;68061.97;10272876;28;20042;-78
2023/07/27 10:11:26;;;;;;;11.00;6.00;;;;;;;-144.32;100.00;68061.97;10279972;28;20548;-76
2023/07/27 10:16:58;;;;;;;6.85;5.85;;;;;;;-144.32;100.00;68061.97;10269505;28;20409;-76
2023/07/27 10:22:33;;;;;;;6.20;5.20;;;;;;;-144.32;100.00;68061.97;10269515;28;20042;-77
2023/07/27 10:28:28;;;;;;;5.60;4.97;;;;;;;-144.32;100.00;68061.97;10270018;28;20507;-76
2023/07/27 10:34:19;;;;;;;10.43;7.30;;;;;;;-144.32;100.00;68061.97;10250314;28;20066;-76
2023/07/27 10:40:22;;;;;;;13.27;7.75;;;;;;;-144.32;100.00;68061.97;10253267;28;20138;-79
2023/07/27 10:46:20;;;;;;;6.50;5.43;;;;;;;-144.32;100.00;68061.97;10268194;28;20062;-78
2023/07/27 10:52:00;;;;;;;5.47;4.97;;;;;;;-144.32;100.00;68061.97;10263346;28;20051;-77
2023/07/27 10:57:42;;;;;;;6.90;4.93;;;;;;;-144.32;100.00;68061.97;10269961;28;20051;-78
2023/07/27 11:03:29;;;;;;;8.50;4.65;;;;;;;-144.32;100.00;68061.97;10269797;28;20051;-76
2023/07/27 11:09:09;;;;;;;5.95;4.68;;;;;;;-144.32;100.00;68061.97;10267820;28;20058;-77
2023/07/27 11:15:20;;;;;;;5.45;4.53;;;;;;;-144.32;100.00;68061.97;10265883;28;21122;-77
2023/07/27 11:21:15;;;;;;;5.80;4.50;;;;;;;-144.32;100.00;68061.97;10266088;28;20744;-78
2023/07/27 11:27:11;;;;;;;7.28;4.97;;;;;;;-144.32;100.00;68061.97;10268260;28;20057;-78
2023/07/27 11:33:03;;;;;;;4.50;4.10;;;;;;;-144.32;100.00;68061.97;10271677;28;20113;-76
2023/07/27 11:38:27;;;;;;;6.38;5.28;;;;;;;-144.32;100.00;68061.97;10266464;28;20049;-78
2023/07/27 11:43:55;;;;;;;8.48;6.07;;;;;;;-144.32;100.00;68061.97;10249399;28;20046;-78
2023/07/27 11:49:30;;;;;;;10.13;6.38;;;;;;;-144.32;100.00;68061.97;10267512;28;20093;-78
2023/07/27 11:54:55;;;;;;;9.18;6.57;;;;;;;-144.32;100.00;68061.97;10267802;28;20053;-77
2023/07/27 12:00:30;;;;;;;9.15;7.47;;;;;;;-144.32;100.00;68061.97;10270442;28;20046;-78
2023/07/27 12:05:59;;;;;;;10.38;7.35;;;;;;;-144.32;100.00;68061.97;10269418;28;20471;-77
2023/07/27 12:11:09;;;;;;;11.00;8.07;;;;;;;-144.32;100.00;68061.97;10265167;28;20042;-77
2023/07/27 12:16:56;;;;;;;11.15;8.75;;;;;;;-144.32;100.00;68061.97;10266259;28;20104;-77
2023/07/27 12:22:08;;;;;;;13.45;9.75;;;;;;;-144.32;100.00;68061.97;10275103;28;20038;-77
2023/07/27 12:27:17;;;;;;;11.70;8.60;;;;;;;-144.32;100.00;68061.97;10272385;28;20046;-78
2023/07/27 12:32:24;;;;;;;12.70;10.27;;;;;;;-144.32;100.00;68061.97;10266602;28;20066;-76
2023/07/27 12:37:33;;;;;;;15.15;10.02;;;;;;;-144.32;100.00;68061.97;10265976;28;20053;-76
2023/07/27 12:42:38;;;;;;;15.95;11.40;;;;;;;-144.32;100.00;68061.97;10273875;28;20051;-78
2023/07/27 12:47:46;;;;;;;14.45;10.85;;;;;;;-144.32;100.00;68061.97;10278822;28;20117;-75
2023/07/27 12:52:49;;;;;;;15.45;11.63;;;;;;;-144.32;100.00;68061.97;10275118;28;20481;-77
2023/07/27 12:57:52;;;;;;;15.60;11.40;;;;;;;-144.32;100.00;68061.97;10280610;28;20056;-76
2023/07/27 13:02:57;;;;;;;;;;;;;;;-144.32;100.00;68061.97;10268090;28;20822;-75
2023/07/27 13:08:03;;;;;;;14.85;11.13;;;;;;;-144.32;100.00;68061.97;10284352;28;19976;-73
2023/07/27 13:13:06;;;;;;;16.33;11.60;;;;;;;-144.32;100.00;68061.97;10265617;28;20034;-74
2023/07/27 13:18:09;;;;;;;16.02;11.57;;;;;;;-144.32;100.00;68061.97;10253477;28;20067;-77
2023/07/27 13:23:15;;;;;;;16.48;11.15;;;;;;;-144.32;100.00;68061.97;10267292;28;20046;-73
2023/07/27 13:28:18;;;;;;;14.73;10.32;;;;;;;-144.32;100.00;68061.97;10270785;28;20122;-77
2023/07/27 13:33:23;;;;;;;16.83;11.85;;;;;;;-144.32;100.00;68061.97;10274639;28;20478;-77
2023/07/27 13:38:30;;;;;;;13.50;10.48;;;;;;;-144.32;100.00;68061.97;10274297;28;20043;-78
2023/07/27 13:43:34;;;;;;;14.02;10.48;;;;;;;-144.32;100.00;68061.97;10277076;28;20047;-75
2023/07/27 13:48:36;;;;;;;16.50;11.45;;;;;;;-144.32;100.00;68061.97;10271814;28;20066;-76
2023/07/27 13:53:41;;;;;;;15.07;11.10;;;;;;;-144.32;100.00;68061.97;10264476;28;20038;-76
2023/07/27 13:58:41;;;;;;;14.63;11.00;;;;;;;-144.32;100.00;68061.97;10265656;28;20076;-76
2023/07/27 14:03:43;;;;;;;13.02;9.57;;;;;;;-144.32;100.00;68061.97;10269492;28;20050;-76
2023/07/27 14:08:47;;;;;;;17.38;11.32;;;;;;;-144.32;100.00;68061.97;10267006;28;20039;-78
2023/07/27 14:13:50;;;;;;;13.20;10.30;;;;;;;-144.32;100.00;68061.97;10266633;28;20047;-76
2023/07/27 14:18:50;;;;;;;14.95;10.52;;;;;;;-144.32;100.00;68061.97;10267836;28;20380;-77
2023/07/27 14:23:56;;;;;;;13.25;10.05;;;;;;;-144.32;100.00;68061.97;10268442;28;20046;-76
2023/07/27 14:29:05;;;;;;;15.48;10.90;;;;;;;-144.32;100.00;68061.97;10273528;28;20073;-76
2023/07/27 14:34:07;;;;;;;15.77;10.55;;;;;;;-144.32;100.00;68061.97;10284813;28;20063;-77
2023/07/27 14:39:14;;;;;;;15.32;11.48;;;;;;;-144.32;100.00;68061.97;10290029;28;20058;-78
2023/07/27 14:44:21;;;;;;;16.45;11.68;;;;;;;-144.32;100.00;68061.97;10277827;28;20130;-76
2023/07/27 14:49:26;;;;;;;16.55;11.30;;;;;;;-144.32;100.00;68061.97;10273235;28;20054;-75
2023/07/27 14:54:34;;;;;;;16.55;11.20;;;;;;;-144.32;100.00;68061.97;10270790;28;20564;-78
2023/07/27 14:59:37;;;;;;;12.38;9.90;;;;;;;-144.32;100.00;68061.97;10271674;28;20058;-76
2023/07/27 15:04:45;;;;;;;17.58;11.63;;;;;;;-144.32;100.00;68061.97;10267712;28;20043;-74
2023/07/27 15:09:51;;;;;;;15.05;10.35;;;;;;;-144.32;100.00;68061.97;10262013;28;20157;-77
2023/07/27 15:14:56;;;;;;;13.25;9.60;;;;;;;-144.32;100.00;68061.97;10248461;28;23608;-75
2023/07/27 15:20:04;;;;;;;15.68;10.75;;;;;;;-144.32;100.00;68061.97;10265297;28;20097;-76
2023/07/27 15:25:12;;;;;;;17.35;10.80;;;;;;;-144.32;100.00;68061.97;10273062;28;20051;-72
2023/07/27 15:30:19;;;;;;;14.27;10.07;;;;;;;-144.32;100.00;68061.97;10270635;28;20560;-73
2023/07/27 15:35:26;;;;;;;15.23;11.02;;;;;;;-144.32;100.00;68061.97;10270643;28;20479;-72
2023/07/27 15:40:34;;;;;;;16.48;10.48;;;;;;;-144.32;100.00;68061.97;10268432;28;20101;-76
2023/07/27 15:45:36;;;;;;;12.23;8.63;;;;;;;-144.32;100.00;68061.97;10268500;28;20034;-74
2023/07/27 15:50:41;;;;;;;13.90;11.33;;;;;;;-144.32;100.00;68061.97;10268588;28;20558;-73
2023/07/27 15:55:46;;;;;;;13.55;10.18;;;;;;;-144.32;100.00;68061.97;10257705;28;20154;-74
2023/07/27 16:00:54;;;;;;;13.70;9.73;;;;;;;-144.32;100.00;68061.97;10245739;28;20137;-76
2023/07/27 16:06:02;;;;;;;10.27;8.70;;;;;;;-144.32;100.00;68061.97;10262942;28;20047;-75
2023/07/27 16:11:10;;;;;;;13.05;9.50;;;;;;;-144.32;100.00;68061.97;10265916;28;20534;-75
2023/07/27 16:16:14;;;;;;;11.10;8.85;;;;;;;-144.32;100.00;68061.97;10268650;28;20053;-77
2023/07/27 16:21:15;;;;;;;12.15;8.75;;;;;;;-144.32;100.00;68061.97;10260670;28;20394;-73
2023/07/27 16:26:17;;;;;;;12.13;8.73;;;;;;;-144.32;100.00;68061.97;10279950;28;20043;-76
2023/07/27 16:31:23;;;;;;;;;;;;;;;-144.32;100.00;68061.97;10274197;28;20039;-73
2023/07/27 16:36:27;;;;;;;10.80;7.72;;;;;;;-144.32;100.00;68061.97;10276706;28;20001;-74
2023/07/27 16:41:32;;;;;;;10.00;7.70;;;;;;;-144.32;100.00;68061.97;10272198;28;20666;-75
2023/07/27 16:46:32;;;;;;;13.70;9.55;;;;;;;-144.32;100.00;68061.97;10275012;28;20039;-73
2023/07/27 16:51:33;;;;;;;11.88;8.85;;;;;;;-144.32;100.00;68061.97;10270195;28;20058;-75
2023/07/27 16:56:34;;;;;;;11.60;8.40;;;;;;;-144.32;100.00;68061.97;10272363;28;20113;-76
2023/07/27 17:01:38;;;;;;;10.93;8.70;;;;;;;-144.32;100.00;68061.97;10265060;28;20543;-78
2023/07/27 17:06:41;;;;;;;12.55;8.98;;;;;;;-144.32;100.00;68061.97;10263732;28;20049;-77
2023/07/27 17:11:43;;;;;;;11.82;9.27;;;;;;;-144.32;100.00;68061.97;10269694;28;20094;-79
2023/07/27 17:16:45;;;;;;;10.27;7.68;;;;;;;-144.32;100.00;68061.97;10248426;28;20065;-77
2023/07/27 17:21:47;;;;;;;12.35;9.10;;;;;;;-144.32;100.00;68061.97;10274208;28;20439;-77
2023/07/27 17:26:49;;;;;;;15.13;9.98;;;;;;;-144.32;100.00;68061.97;10274553;28;20246;-77
2023/07/27 17:31:50;;;;;;;10.03;8.40;;;;;;;-144.32;100.00;68061.97;10274026;28;20050;-78
2023/07/27 17:36:53;;;;;;;11.35;8.98;;;;;;;-144.32;100.00;68061.97;10274852;28;20448;-78
2023/07/27 17:41:56;;;;;;;13.43;9.15;;;;;;;-144.32;100.00;68061.97;10235914;28;20101;-79
2023/07/27 17:46:58;;;;;;;12.85;9.98;;;;;;;-144.32;100.00;68061.97;10267699;28;20047;-78
2023/07/27 17:52:03;;;;;;;14.80;10.00;;;;;;;-144.32;100.00;68061.97;10271448;28;20081;-78
2023/07/27 17:57:06;;;;;;;13.07;8.93;;;;;;;-144.32;100.00;68061.97;10268347;28;20042;-77
2023/07/27 18:02:07;;;;;;;10.95;8.80;;;;;;;-144.32;100.00;68061.97;10268301;28;20181;-78
2023/07/27 18:07:07;;;;;;;14.57;9.77;;;;;;;-144.32;100.00;68061.97;10275379;28;20059;-78
2023/07/27 18:12:08;;;;;;;16.25;10.25;;;;;;;-144.32;100.00;68061.97;10273169;28;20697;-76
2023/07/27 18:17:08;;;;;;;11.02;8.27;;;;;;;-144.32;100.00;68061.97;10271732;28;20062;-80
2023/07/27 18:22:09;;;;;;;12.88;9.55;;;;;;;-144.32;100.00;68061.97;10280392;28;20046;-76
2023/07/27 18:27:12;;;;;;;15.40;11.18;;;;;;;-144.32;100.00;68061.97;10256254;28;20716;-79
2023/07/27 18:32:13;;;;;;;13.63;10.20;;;;;;;-144.32;100.00;68061.97;10269083;28;20055;-79
2023/07/27 18:37:18;;;;;;;14.43;10.68;;;;;;;-144.32;100.00;68061.97;10251084;28;20159;-76
2023/07/27 18:42:21;;;;;;;15.25;10.63;;;;;;;-144.32;100.00;68061.97;10271649;28;20043;-79
2023/07/27 18:47:24;;;;;;;13.57;9.85;;;;;;;-144.32;100.00;68061.97;10269112;28;20048;-81
2023/07/27 18:52:27;;;;;;;12.93;10.07;;;;;;;-144.32;100.00;68061.97;10274220;28;20039;-78
2023/07/27 18:57:29;;;;;;;17.27;11.38;;;;;;;-144.32;100.00;68061.97;10267365;28;20094;-77
2023/07/27 19:02:34;;;;;;;;;;;;;;;-144.32;100.00;68061.97;10268022;28;20146;-76
2023/07/27 19:07:36;;;;;;;16.08;11.90;;;;;;;-144.32;100.00;68061.97;10250462;28;20769;-77
2023/07/27 19:12:37;;;;;;;17.90;12.85;;;;;;;-144.32;100.00;68061.97;10260369;28;20209;-78
2023/07/27 19:17:39;;;;;;;20.80;13.60;;;;;;;-144.32;100.00;68061.97;10267808;28;20039;-80
2023/07/27 19:22:44;;;;;;;16.58;12.00;;;;;;;-144.32;100.00;68061.97;10266102;28;20467;-76
2023/07/27 19:27:47;;;;;;;14.90;11.27;;;;;;;-144.32;100.00;68061.97;10266291;28;20165;-78
2023/07/27 19:32:49;;;;;;;16.85;11.70;;;;;;;-144.32;100.00;68061.97;10269207;28;20123;-82
2023/07/27 19:37:51;;;;;;;14.67;11.50;;;;;;;-144.32;100.00;68061.97;10276549;28;20540;-79
2023/07/27 19:42:58;;;;;;;15.80;10.95;;;;;;;-144.32;100.00;68061.97;10253878;28;20050;-79
2023/07/27 19:48:02;;;;;;;11.63;9.15;;;;;;;-144.32;100.00;68061.97;10255061;28;20094;-80
2023/07/27 19:53:06;;;;;;;14.65;10.70;;;;;;;-144.32;100.00;68061.97;10268649;28;20045;-77
2023/07/27 19:58:09;;;;;;;14.80;10.95;;;;;;;-144.32;100.00;68061.97;10251637;28;20057;-77
2023/07/27 20:03:10;;;;;;;10.77;8.90;;;;;;;-144.32;100.00;68061.97;10253958;28;20097;-76
2023/07/27 20:08:14;;;;;;;15.63;10.70;;;;;;;-144.32;100.00;68061.97;10268711;28;20113;-77
2023/07/27 20:13:18;;;;;;;12.65;9.52;;;;;;;-144.32;100.00;68061.97;10267123;28;20065;-77
2023/07/27 20:18:22;;;;;;;13.35;9.73;;;;;;;-144.32;100.00;68061.97;10262309;28;20031;-78
2023/07/27 20:23:26;;;;;;;13.70;10.90;;;;;;;-144.32;100.00;68061.97;10266270;28;20051;-77
2023/07/27 20:28:31;;;;;;;12.43;9.45;;;;;;;-144.32;100.00;68061.97;10266698;28;20292;-79
2023/07/27 20:33:34;;;;;;;10.75;9.13;;;;;;;-144.32;100.00;68061.97;10272702;28;20117;-77
2023/07/27 20:38:36;;;;;;;12.63;10.25;;;;;;;-144.32;100.00;68061.97;10273174;28;20046;-78
2023/07/27 20:43:46;;;;;;;14.10;11.53;;;;;;;-144.32;100.00;68061.97;10266635;28;20047;-79
2023/07/27 20:48:58;;;;;;;12.43;9.75;;;;;;;-144.32;100.00;68061.97;10248317;28;20683;-79
2023/07/27 20:54:01;;;;;;;12.55;10.05;;;;;;;-144.32;100.00;68061.97;10233751;28;20129;-77
2023/07/27 20:59:08;;;;;;;12.40;9.88;;;;;;;-144.32;100.00;68061.97;10265350;28;20038;-78
2023/07/27 21:04:11;;;;;;;14.65;10.82;;;;;;;-144.32;100.00;68061.97;10270390;28;20047;-79
2023/07/27 21:09:22;;;;;;;12.70;9.60;;;;;;;-144.32;100.00;68061.97;10269499;28;20157;-78
2023/07/27 21:14:35;;;;;;;13.40;10.60;;;;;;;-144.32;100.00;68061.97;10272281;28;20521;-78
2023/07/27 21:19:41;;;;;;;15.35;11.48;;;;;;;-144.32;100.00;68061.97;10254232;28;20771;-75
2023/07/27 21:24:47;;;;;;;13.70;10.15;;;;;;;-144.32;100.00;68061.97;10278903;28;20874;-77
2023/07/27 21:29:58;;;;;;;14.52;11.02;;;;;;;-144.32;100.00;68061.97;10262879;28;20123;-77
2023/07/27 21:35:07;;;;;;;12.68;10.50;;;;;;;-144.32;100.00;68061.97;10267393;28;20050;-78
2023/07/27 21:40:17;;;;;;;15.45;11.38;;;;;;;-144.32;100.00;68061.97;10267685;28;20047;-77
2023/07/27 21:45:35;;;;;;;16.02;10.77;;;;;;;-144.32;100.00;68061.97;10267874;28;20050;-77
2023/07/27 21:50:46;;;;;;;11.98;9.60;;;;;;;-144.32;100.00;68061.97;10253832;28;20153;-78
2023/07/27 21:55:48;;;;;;;13.52;10.05;;;;;;;-144.32;100.00;68061.97;10270031;28;20043;-78
2023/07/27 22:00:55;;;;;;;14.17;11.07;;;;;;;-144.32;100.00;68061.97;10267770;28;20439;-77
2023/07/27 22:06:01;;;;;;;16.13;11.65;;;;;;;-144.32;100.00;68061.97;10281482;28;20169;-77
2023/07/27 22:11:06;;;;;;;12.15;10.20;;;;;;;-144.32;100.00;68061.97;10270992;28;20158;-75
2023/07/27 22:16:09;;;;;;;12.40;10.32;;;;;;;-144.32;100.00;68061.97;10273811;28;20085;-75
2023/07/27 22:21:20;;;;;;;12.13;9.73;;;;;;;-144.32;100.00;68061.97;10269697;28;20051;-77
2023/07/27 22:26:28;;;;;;;14.25;10.98;;;;;;;-144.32;100.00;68061.97;10275460;28;20069;-76
2023/07/27 22:31:35;;;;;;;14.48;10.85;;;;;;;-144.32;100.00;68061.97;10269961;28;20053;-77
2023/07/27 22:36:54;;;;;;;15.02;10.88;;;;;;;-144.32;100.00;68061.97;10270610;28;20046;-76
2023/07/27 22:42:12;;;;;;;11.82;9.82;;;;;;;-144.32;100.00;68061.97;10270262;28;21298;-78
2023/07/27 22:47:35;;;;;;;12.00;9.45;;;;;;;-144.32;100.00;68061.97;10267764;28;20471;-76
2023/07/27 22:53:13;;;;;;;11.37;9.50;;;;;;;-144.32;100.00;68061.97;10249319;28;20043;-77
2023/07/27 22:58:40;;;;;;;11.93;9.70;;;;;;;-144.32;100.00;68061.97;10268926;28;20662;-78